Hauptseite
METAR-TAF:

METAR-TAF

Flughäfen :

Islay Airport

Islay, Schottland

Breite: 55-40-55N, Länge: 006-15-24W, Höhe: 16 m

Beobachtung

Neuester Wetterbericht von vor 1 Stunde und 53 Minuten, um 19:50 UTC
Wind 5 kt aus Süd, variierte zwischen Süd und West/Südwest
Temperatur 14°C
Luftfeuchtigkeit 82%
Luftdruck 1012 hPa
Sichtweite 10 km oder mehr

METAR: EGPI 161950Z AUTO 19005KT 170V250 9999 // BKN032/// 14/11 Q1012

Zeit: 22:43 (21:43 UTC)

Prognose

Neuester Wetterbericht von vor 7 Stunden und 43 Minuten, um 14:00 UTC
Gültige Prognose vom 16 um 15 UTC bis 16 um 18 UTC
Wind 7 kt aus Südwest
Sichtweite 10 km oder mehr
Aufgelockert bewölkt in der Höhe von 3500 ft

TAF: EGPI 161400Z 1615/1618 23007KT 9999 SCT035

Wetterbeobachtungen und Prognosen von mehr als 4000 Flughäfen (METAR und TAF Bericht).

Die verfügbaren Stationen werden durch gelbe und rote Markierungen auf der Karte dargestellt.

Führen Sie die Maus auf sie, um den Namen der Station zu sehen.

Darauf klicken, um die Beobachtung von Wetterbeobachtungen und Prognosen zu sehen.

Um die Karte zu ändern : klicken Sie auf den grünen Tasten mit einem schwarzen Kreuz Zum Vergrößern, auf den grünen Button mit einem Gedankenstrich zu verkleinern, oder auf die grünen Pfeile für benachbarte Karten.


METAR-TAF: